Time,TemperatureF,DewpointF,PressureIn,WindDirection,WindDirectionDegrees,WindSpeedMPH,WindSpeedGustMPH,Humidity,HourlyPrecipIn,Conditions,Clouds,dailyrainin,SoftwareType,DateUTC
2013-05-23 01:30:00,64.0,58.0,29.81,WSW,257,1.0,6.0,82,0.00,,,0.00,weatherlink.com 1.10,2013-05-23 05:30:00,
2013-05-23 01:45:00,64.0,58.0,29.81,WNW,294,3.0,7.0,82,0.00,,,0.00,weatherlink.com 1.10,2013-05-23 05:45:00,
2013-05-23 02:00:00,64.2,59.0,29.81,NNW,336,2.0,7.0,83,0.00,,,0.00,weatherlink.com 1.10,2013-05-23 06:00:00,
2013-05-23 02:15:00,63.9,59.0,29.80,WNW,292,1.0,7.0,85,0.00,,,0.00,weatherlink.com 1.10,2013-05-23 06:15:00,
2013-05-23 02:30:00,63.7,60.0,29.81,NNE,24,2.0,5.0,86,0.00,,,0.00,weatherlink.com 1.10,2013-05-23 06:30:00,
2013-05-23 02:45:00,63.4,60.0,29.81,North,360,1.0,5.0,87,0.00,,,0.00,weatherlink.com 1.10,2013-05-23 06:45:00,
2013-05-23 03:00:00,63.1,60.0,29.81,NNE,17,1.0,6.0,89,0.00,,,0.00,weatherlink.com 1.10,2013-05-23 07:00:00,
2013-05-23 03:15:00,63.0,60.0,29.81,NW,315,1.0,13.0,89,0.00,,,0.00,weatherlink.com 1.10,2013-05-23 07:15:00,
2013-05-23 03:30:00,63.2,60.0,29.80,North,5,2.0,6.0,88,0.00,,,0.00,weatherlink.com 1.10,2013-05-23 07:30:00,
2013-05-23 03:45:00,63.1,60.0,29.80,ENE,61,4.0,7.0,89,0.00,,,0.00,weatherlink.com 1.10,2013-05-23 07:45:00,
2013-05-23 04:00:00,62.8,60.0,29.81,SE,138,1.0,7.0,89,0.00,,,0.00,weatherlink.com 1.10,2013-05-23 08:00:00,
2013-05-23 04:15:00,62.7,59.0,29.80,NE,43,1.0,6.0,88,0.00,,,0.00,weatherlink.com 1.10,2013-05-23 08:15:00,
2013-05-23 04:30:00,63.0,59.0,29.80,South,191,0.0,7.0,85,0.00,,,0.00,weatherlink.com 1.10,2013-05-23 08:30:00,
2013-05-23 04:45:00,63.2,59.0,29.79,ENE,78,0.0,1.0,86,0.00,,,0.00,weatherlink.com 1.10,2013-05-23 08:45:00,
2013-05-23 05:00:00,63.6,59.0,29.79,ENE,62,1.0,5.0,86,0.00,,,0.00,weatherlink.com 1.10,2013-05-23 09:00:00,
2013-05-23 05:15:00,63.8,60.0,29.80,North,5,0.0,3.0,86,0.00,,,0.00,weatherlink.com 1.10,2013-05-23 09:15:00,
2013-05-23 05:30:00,63.6,59.0,29.80,NNE,15,1.0,5.0,84,0.00,,,0.00,weatherlink.com 1.10,2013-05-23 09:30:00,
2013-05-23 05:45:00,63.7,59.0,29.80,WSW,238,0.0,6.0,83,0.00,,,0.00,weatherlink.com 1.10,2013-05-23 09:45:00,
2013-05-23 06:00:00,63.6,59.0,29.80,WSW,242,3.0,10.0,84,0.00,,,0.00,weatherlink.com 1.10,2013-05-23 10:00:00,
2013-05-23 06:15:00,63.2,59.0,29.80,SW,229,4.0,12.0,86,0.00,,,0.00,weatherlink.com 1.10,2013-05-23 10:15:00,
2013-05-23 06:30:00,63.0,59.0,29.81,WSW,241,4.0,9.0,86,0.00,,,0.00,weatherlink.com 1.10,2013-05-23 10:30:00,
2013-05-23 06:45:00,63.0,59.0,29.81,SSW,202,1.0,10.0,85,0.00,,,0.00,weatherlink.com 1.10,2013-05-23 10:45:00,
2013-05-23 07:00:00,63.1,59.0,29.81,SSW,210,5.0,12.0,86,0.00,,,0.00,weatherlink.com 1.10,2013-05-23 11:00:00,
2013-05-23 07:15:00,63.1,59.0,29.81,ENE,57,0.0,9.0,86,0.00,,,0.00,weatherlink.com 1.10,2013-05-23 11:15:00,
2013-05-23 07:30:00,63.2,59.0,29.81,East,91,2.0,6.0,86,0.00,,,0.00,weatherlink.com 1.10,2013-05-23 11:30:00,
2013-05-23 07:45:00,62.6,59.0,29.82,SSW,200,1.0,12.0,88,0.00,,,0.00,weatherlink.com 1.10,2013-05-23 11:45:00,
2013-05-23 08:00:00,62.5,59.0,29.81,SW,229,7.0,14.0,88,0.00,,,0.00,weatherlink.com 1.10,2013-05-23 12:00:00,
2013-05-23 08:15:00,62.2,59.0,29.82,SW,221,6.0,10.0,89,0.00,,,0.00,weatherlink.com 1.10,2013-05-23 12:15:00,
2013-05-23 08:30:00,62.1,59.0,29.81,WSW,246,12.0,15.0,89,0.00,,,0.00,weatherlink.com 1.10,2013-05-23 12:30:00,
2013-05-23 08:45:00,62.0,59.0,29.82,SSW,210,8.0,15.0,90,0.00,,,0.00,weatherlink.com 1.10,2013-05-23 12:45:00,
2013-05-23 09:00:00,61.8,59.0,29.81,SW,219,3.0,13.0,91,0.00,,,0.00,weatherlink.com 1.10,2013-05-23 13:00:00,
2013-05-23 09:15:00,62.0,59.0,29.82,WSW,240,8.0,13.0,91,0.00,,,0.00,weatherlink.com 1.10,2013-05-23 13:15:00,
2013-05-23 09:30:00,62.5,60.0,29.82,SW,221,11.0,12.0,90,0.00,,,0.00,weatherlink.com 1.10,2013-05-23 13:30:00,
2013-05-23 09:45:00,63.0,60.0,29.82,WSW,252,9.0,13.0,91,0.00,,,0.00,weatherlink.com 1.10,2013-05-23 13:45:00,
2013-05-23 10:00:00,63.1,61.0,29.82,SSW,211,3.0,14.0,91,0.00,,,0.00,weatherlink.com 1.10,2013-05-23 14:00:00,
2013-05-23 10:15:00,63.5,61.0,29.82,SSW,212,4.0,14.0,90,0.00,,,0.00,weatherlink.com 1.10,2013-05-23 14:15:00,
2013-05-23 10:30:00,63.8,61.0,29.82,WSW,243,3.0,12.0,89,0.00,,,0.00,weatherlink.com 1.10,2013-05-23 14:30:00,
2013-05-23 10:45:00,64.4,61.0,29.81,South,190,4.0,11.0,89,0.00,,,0.00,weatherlink.com 1.10,2013-05-23 14:45:00,
2013-05-23 11:00:00,66.2,62.0,29.81,SSW,212,6.0,11.0,87,0.00,,,0.00,weatherlink.com 1.10,2013-05-23 15:00:00,
2013-05-23 11:15:00,67.6,62.0,29.81,SSW,201,5.0,12.0,83,0.00,,,0.00,weatherlink.com 1.10,2013-05-23 15:15:00,
2013-05-23 11:30:00,68.5,63.0,29.82,SSW,205,2.0,9.0,82,0.00,,,0.00,weatherlink.com 1.10,2013-05-23 15:30:00,
2013-05-23 11:45:00,68.6,63.0,29.82,WSW,255,3.0,13.0,81,0.00,,,0.00,weatherlink.com 1.10,2013-05-23 15:45:00,
2013-05-23 12:01:00,69.4,63.0,29.81,NNW,340,1.0,7.0,81,0.00,,,0.00,weatherlink.com 1.10,2013-05-23 16:01:00,
2013-05-23 12:16:00,69.7,63.0,29.81,WNW,284,3.0,8.0,80,0.00,,,0.00,weatherlink.com 1.10,2013-05-23 16:16:00,
2013-05-23 12:31:00,70.2,64.0,29.81,West,281,0.0,5.0,80,0.00,,,0.00,weatherlink.com 1.10,2013-05-23 16:31:00,
2013-05-23 12:46:00,70.8,63.0,29.80,NNE,20,2.0,5.0,77,0.00,,,0.00,weatherlink.com 1.10,2013-05-23 16:46:00,
2013-05-23 13:01:00,71.5,63.0,29.79,NNE,23,3.0,7.0,75,0.00,,,0.00,weatherlink.com 1.10,2013-05-23 17:01:00,
2013-05-23 13:16:00,72.7,63.0,29.79,South,178,7.0,8.0,72,0.00,,,0.00,weatherlink.com 1.10,2013-05-23 17:16:00,
2013-05-23 13:31:00,73.1,62.0,29.78,WNW,292,2.0,7.0,69,0.00,,,0.00,weatherlink.com 1.10,2013-05-23 17:31:00,
2013-05-23 13:46:00,73.7,63.0,29.78,WSW,242,1.0,4.0,69,0.00,,,0.00,weatherlink.com 1.10,2013-05-23 17:46:00,
2013-05-23 14:01:00,74.7,63.0,29.77,NW,311,2.0,6.0,67,0.00,,,0.00,weatherlink.com 1.10,2013-05-23 18:01:00,
2013-05-23 14:16:00,73.9,62.0,29.76,South,191,8.0,8.0,67,0.00,,,0.00,weatherlink.com 1.10,2013-05-23 18:16:00,
2013-05-23 14:31:00,73.7,62.0,29.76,ENE,65,1.0,5.0,67,0.00,,,0.00,weatherlink.com 1.10,2013-05-23 18:31:00,
2013-05-23 14:46:00,73.2,61.0,29.75,NE,37,2.0,7.0,66,0.00,,,0.00,weatherlink.com 1.10,2013-05-23 18:46:00,
2013-05-23 15:01:00,73.7,60.0,29.74,South,184,4.0,6.0,63,0.00,,,0.00,weatherlink.com 1.10,2013-05-23 19:01:00,
2013-05-23 15:16:00,73.5,61.0,29.74,NNE,31,3.0,5.0,64,0.00,,,0.00,weatherlink.com 1.10,2013-05-23 19:16:00,
2013-05-23 15:31:00,72.4,61.0,29.74,North,5,0.0,5.0,67,0.00,,,0.00,weatherlink.com 1.10,2013-05-23 19:31:00,
2013-05-23 15:46:00,72.3,63.0,29.73,NE,42,5.0,6.0,72,0.00,,,0.00,weatherlink.com 1.10,2013-05-23 19:46:00,
2013-05-23 16:01:00,72.1,64.0,29.72,ENE,59,1.0,11.0,75,0.00,,,0.00,weatherlink.com 1.10,2013-05-23 20:01:00,
2013-05-23 16:16:00,71.5,64.0,29.72,NW,317,1.0,6.0,78,0.00,,,0.00,weatherlink.com 1.10,2013-05-23 20:16:00,
2013-05-23 16:31:00,71.9,65.0,29.72,NE,35,4.0,5.0,78,0.00,,,0.00,weatherlink.com 1.10,2013-05-23 20:31:00,
2013-05-23 16:46:00,73.2,62.0,29.72,NE,51,3.0,6.0,69,0.00,,,0.00,weatherlink.com 1.10,2013-05-23 20:46:00,
2013-05-23 17:01:00,72.3,61.0,29.72,NW,317,1.0,6.0,68,0.00,,,0.00,weatherlink.com 1.10,2013-05-23 21:01:00,
2013-05-23 17:16:00,71.2,62.0,29.72,NE,35,0.0,5.0,73,0.00,,,0.00,weatherlink.com 1.10,2013-05-23 21:16:00,
2013-05-23 17:31:00,71.4,62.0,29.71,NE,39,3.0,6.0,71,0.00,,,0.00,weatherlink.com 1.10,2013-05-23 21:31:00,
2013-05-23 17:46:00,71.8,62.0,29.71,North,349,1.0,5.0,70,0.00,,,0.00,weatherlink.com 1.10,2013-05-23 21:46:00,
2013-05-23 18:01:00,71.7,61.0,29.71,West,259,4.0,7.0,70,0.00,,,0.00,weatherlink.com 1.10,2013-05-23 22:01:00,
2013-05-23 18:16:00,72.6,61.0,29.70,North,5,2.0,10.0,68,0.00,,,0.00,weatherlink.com 1.10,2013-05-23 22:16:00,
2013-05-23 18:31:00,72.3,58.0,29.70,WNW,285,2.0,8.0,62,0.00,,,0.00,weatherlink.com 1.10,2013-05-23 22:31:00,
2013-05-23 18:46:00,71.7,58.0,29.70,NW,305,1.0,9.0,63,0.00,,,0.00,weatherlink.com 1.10,2013-05-23 22:46:00,
2013-05-23 19:01:00,71.6,60.0,29.70,SW,233,4.0,5.0,66,0.00,,,0.00,weatherlink.com 1.10,2013-05-23 23:01:00,
2013-05-23 19:16:00,71.0,60.0,29.69,SW,236,0.0,9.0,69,0.00,,,0.00,weatherlink.com 1.10,2013-05-23 23:16:00,
2013-05-23 19:31:00,70.1,61.0,29.69,NNE,33,0.0,3.0,72,0.00,,,0.00,weatherlink.com 1.10,2013-05-23 23:31:00,
2013-05-23 19:46:00,69.5,61.0,29.70,East,101,0.0,2.0,75,0.00,,,0.00,weatherlink.com 1.10,2013-05-23 23:46:00,
2013-05-23 20:01:00,68.9,61.0,29.70,SSW,205,0.0,2.0,77,0.00,,,0.00,weatherlink.com 1.10,2013-05-24 00:01:00,
2013-05-23 20:16:00,68.3,62.0,29.70,NNW,346,0.0,4.0,79,0.00,,,0.00,weatherlink.com 1.10,2013-05-24 00:16:00,
2013-05-23 20:31:00,67.6,56.0,29.73,SSW,209,2.0,12.0,67,0.00,,,0.00,weatherlink.com 1.10,2013-05-24 00:31:00,
2013-05-23 20:46:00,62.9,55.0,29.75,WSW,251,1.0,17.0,76,0.01,,,0.01,weatherlink.com 1.10,2013-05-24 00:46:00,
2013-05-23 21:01:00,60.6,55.0,29.75,North,5,2.0,10.0,82,0.07,,,0.07,weatherlink.com 1.10,2013-05-24 01:01:00,
2013-05-23 21:16:00,61.0,56.0,29.76,SW,221,2.0,5.0,83,0.11,,,0.11,weatherlink.com 1.10,2013-05-24 01:16:00,
2013-05-23 21:31:00,61.1,57.0,29.77,SSE,157,0.0,3.0,85,0.13,,,0.13,weatherlink.com 1.10,2013-05-24 01:31:00,
2013-05-23 21:46:00,59.4,57.0,29.78,NE,54,0.0,4.0,91,0.19,,,0.20,weatherlink.com 1.10,2013-05-24 01:46:00,
2013-05-23 22:02:00,58.8,57.0,29.77,SSW,199,3.0,3.0,93,0.16,,,0.23,weatherlink.com 1.10,2013-05-24 02:02:00,
2013-05-23 22:17:00,59.7,56.0,29.76,South,171,0.0,2.0,88,0.14,,,0.25,weatherlink.com 1.10,2013-05-24 02:17:00,
2013-05-23 22:32:00,59.6,56.0,29.77,South,188,2.0,4.0,89,0.13,,,0.26,weatherlink.com 1.10,2013-05-24 02:32:00,
2013-05-23 22:47:00,59.3,57.0,29.77,SW,215,1.0,3.0,91,0.06,,,0.26,weatherlink.com 1.10,2013-05-24 02:47:00,
2013-05-23 23:02:00,59.3,56.0,29.76,WSW,241,0.0,6.0,90,0.03,,,0.26,weatherlink.com 1.10,2013-05-24 03:02:00,
2013-05-23 23:17:00,58.9,57.0,29.76,SW,230,2.0,8.0,92,0.01,,,0.26,weatherlink.com 1.10,2013-05-24 03:17:00,
2013-05-23 23:32:00,59.5,57.0,29.75,WSW,238,7.0,9.0,90,0.00,,,0.26,weatherlink.com 1.10,2013-05-24 03:32:00,
2013-05-23 23:47:00,59.5,57.0,29.75,WSW,243,3.0,7.0,91,0.00,,,0.26,weatherlink.com 1.10,2013-05-24 03:47:00,